Time;durP1;ratioP1;P1;durP2;ratioP2;P2;SDS_P1;SDS_P2;PMS_P1;PMS_P2;Temp;Humidity;BMP_temperature;BMP_pressure;BME280_temperature;BME280_humidity;BME280_pressure;Samples;Min_cycle;Max_cycle;Signal;HPM_P1;HPM_P2
2023/01/07 00:01:12;;;;;;;80.20;7.50;;;;;;;8.31;100.00;100829.47;5108261;28;20046;-71
2023/01/07 00:03:38;;;;;;;71.55;8.50;;;;;;;8.22;100.00;100818.00;5100911;28;20032;-69
2023/01/07 00:06:10;;;;;;;68.47;8.02;;;;;;;8.33;100.00;100835.47;5111894;28;20035;-69
2023/01/07 00:08:38;;;;;;;69.53;7.88;;;;;;;8.34;100.00;100837.97;5101451;28;20443;-69
2023/01/07 00:11:06;;;;;;;75.18;8.32;;;;;;;8.26;100.00;100831.88;5104487;28;20628;-69
2023/01/07 00:13:32;;;;;;;67.10;8.27;;;;;;;8.19;100.00;100837.97;5107116;28;20506;-69
2023/01/07 00:15:59;;;;;;;81.95;7.18;;;;;;;8.20;100.00;100833.44;5097777;28;20028;-69
2023/01/07 00:18:25;;;;;;;66.80;6.38;;;;;;;8.03;100.00;100821.22;5061077;28;1493762;-69
2023/01/07 00:20:50;;;;;;;82.30;8.13;;;;;;;8.09;100.00;100842.75;5122299;28;20047;-69
2023/01/07 00:23:16;;;;;;;81.82;8.32;;;;;;;8.00;100.00;100844.66;5106551;28;20118;-70
2023/01/07 00:25:41;;;;;;;75.65;7.40;;;;;;;8.03;100.00;100840.81;5098944;28;20044;-70
2023/01/07 00:28:09;;;;;;;81.95;7.68;;;;;;;7.89;100.00;100822.84;5110910;28;20040;-69
2023/01/07 00:30:35;;;;;;;59.67;7.93;;;;;;;7.97;100.00;100842.34;5100703;28;20040;-70
2023/01/07 00:33:04;;;;;;;73.28;7.70;;;;;;;7.91;100.00;100827.03;5105426;28;20505;-69
2023/01/07 00:35:35;;;;;;;77.15;8.65;;;;;;;7.98;100.00;100841.34;5109726;28;20044;-70
2023/01/07 00:38:04;;;;;;;82.72;7.68;;;;;;;7.89;100.00;100826.34;5097830;28;20048;-70
2023/01/07 00:40:31;;;;;;;80.18;7.90;;;;;;;8.01;100.00;100845.50;5109139;28;20040;-69
2023/01/07 00:43:00;;;;;;;74.63;8.20;;;;;;;8.00;100.00;100844.66;5103435;28;20121;-69
2023/01/07 00:45:31;;;;;;;81.25;7.68;;;;;;;8.07;100.00;100854.66;5084803;28;20086;-70
2023/01/07 00:47:58;;;;;;;75.97;7.70;;;;;;;7.92;100.00;100834.03;5113095;28;20038;-70
2023/01/07 00:50:27;;;;;;;66.72;7.78;;;;;;;8.01;100.00;100856.22;5100634;28;20035;-70
2023/01/07 00:52:53;;;;;;;83.22;8.95;;;;;;;7.98;100.00;100854.75;5108665;28;20056;-70
2023/01/07 00:55:18;;;;;;;80.07;9.00;;;;;;;7.94;100.00;100863.31;5106993;28;20113;-70
2023/01/07 00:57:44;;;;;;;84.18;9.13;;;;;;;8.02;100.00;100875.84;5099640;28;20048;-70
2023/01/07 01:00:12;;;;;;;72.15;7.90;;;;;;;8.00;100.00;100871.47;5111737;28;20106;-70
2023/01/07 01:02:38;;;;;;;76.68;8.13;;;;;;;8.03;100.00;100872.13;5101238;28;20513;-70
2023/01/07 01:05:05;;;;;;;74.18;8.60;;;;;;;7.97;100.00;100871.00;5106599;28;20032;-70
2023/01/07 01:07:30;;;;;;;74.15;8.15;;;;;;;8.06;100.00;100866.41;5110250;28;20081;-70
2023/01/07 01:09:56;;;;;;;78.75;8.00;;;;;;;8.09;100.00;100882.13;5098117;28;20036;-70
2023/01/07 01:12:21;;;;;;;74.35;7.53;;;;;;;8.07;100.00;100873.44;5078234;28;20391;-71
2023/01/07 01:14:47;;;;;;;74.13;7.53;;;;;;;7.89;100.00;100841.59;5106076;28;20036;-70
2023/01/07 01:17:12;;;;;;;77.72;7.60;;;;;;;8.08;100.00;100875.09;5108742;27;20035;-71
2023/01/07 01:19:38;;;;;;;84.63;8.48;;;;;;;7.97;100.00;100853.06;5114729;28;20402;-70
2023/01/07 01:22:03;;;;;;;78.07;7.38;;;;;;;8.16;100.00;100893.78;5103173;28;20111;-70
2023/01/07 01:24:29;;;;;;;79.57;7.72;;;;;;;7.97;100.00;100861.09;5114535;28;20114;-71
2023/01/07 01:26:54;;;;;;;75.93;7.97;;;;;;;7.99;100.00;100868.97;5108441;28;20145;-70
2023/01/07 01:29:19;;;;;;;80.90;8.15;;;;;;;8.12;100.00;100893.31;5106969;28;20115;-70
2023/01/07 01:31:45;;;;;;;68.28;8.15;;;;;;;8.11;100.00;100893.47;5115067;28;20084;-71
2023/01/07 01:34:11;;;;;;;62.67;7.47;;;;;;;8.11;100.00;100894.34;5103562;28;20032;-73
2023/01/07 01:36:37;;;;;;;74.47;7.70;;;;;;;8.08;100.00;100896.53;5114547;28;20075;-70
2023/01/07 01:39:03;;;;;;;71.97;7.53;;;;;;;8.02;100.00;100883.88;5108292;28;20058;-71
2023/01/07 01:41:29;;;;;;;69.60;6.85;;;;;;;8.07;100.00;100892.19;5105484;28;20024;-70
2023/01/07 01:43:55;;;;;;;66.63;6.72;;;;;;;8.05;100.00;100900.41;5116001;28;20106;-72
2023/01/07 01:46:38;;;;;;;78.38;8.02;;;;;;;8.02;100.00;100895.41;5103210;28;20051;-70
2023/01/07 01:49:12;;;;;;;76.97;7.50;;;;;;;7.97;100.00;100890.56;5108896;28;20433;-70
2023/01/07 01:51:47;;;;;;;67.23;6.37;;;;;;;7.97;100.00;100898.63;5113357;28;20084;-70
2023/01/07 01:54:14;;;;;;;76.63;6.97;;;;;;;7.82;100.00;100856.75;5112321;28;20301;-70
2023/01/07 01:56:46;;;;;;;75.70;7.70;;;;;;;8.05;100.00;100911.13;5120629;28;20028;-70
2023/01/07 01:59:17;;;;;;;72.35;7.68;;;;;;;7.99;100.00;100903.81;5111134;28;20027;-70
2023/01/07 02:01:44;;;;;;;81.90;8.68;;;;;;;7.07;100.00;100764.56;5102861;28;20046;-70
2023/01/07 02:04:13;;;;;;;82.82;7.38;;;;;;;8.07;100.00;100908.25;5116888;28;20036;-70
2023/01/07 02:06:49;;;;;;;87.78;7.90;;;;;;;7.87;100.00;100881.97;5105361;28;20114;-72
2023/01/07 02:09:15;;;;;;;70.55;7.18;;;;;;;7.96;100.00;100898.81;5108659;28;20032;-71
2023/01/07 02:12:01;;;;;;;81.55;8.25;;;;;;;7.82;100.00;100876.31;5113307;28;20028;-70
2023/01/07 02:15:03;;;;;;;79.15;7.57;;;;;;;7.93;100.00;100894.63;5088892;28;20440;-74
2023/01/07 02:17:44;;;;;;;70.45;8.57;;;;;;;7.90;100.00;100899.53;5105141;28;20499;-70
2023/01/07 02:20:18;;;;;;;62.42;6.90;;;;;;;7.92;100.00;100894.84;5114693;28;20039;-70
2023/01/07 02:23:08;;;;;;;64.95;7.35;;;;;;;7.97;100.00;100898.63;5105071;28;20362;-70
2023/01/07 02:25:45;;;;;;;75.57;7.97;;;;;;;8.00;100.00;100900.94;5103475;28;20091;-70
2023/01/07 02:28:38;;;;;;;77.57;8.48;;;;;;;7.98;100.00;100899.47;5115426;28;20042;-70
2023/01/07 02:31:45;;;;;;;77.93;8.63;;;;;;;7.96;100.00;100899.63;5109027;28;20461;-69
2023/01/07 02:34:17;;;;;;;84.38;8.18;;;;;;;7.91;100.00;100890.47;5107282;28;20048;-70
2023/01/07 02:37:01;;;;;;;86.15;8.60;;;;;;;7.94;100.00;100896.28;5111266;28;20032;-70
2023/01/07 02:39:45;;;;;;;69.68;7.18;;;;;;;7.96;100.00;100888.91;5113233;28;20035;-72
2023/01/07 02:42:55;;;;;;;59.47;7.00;;;;;;;7.90;100.00;100891.47;5100693;28;20024;-70
2023/01/07 02:45:32;;;;;;;56.47;7.00;;;;;;;7.86;100.00;100888.34;5093100;28;20036;-70
2023/01/07 02:48:08;;;;;;;70.53;7.65;;;;;;;7.95;100.00;100892.63;5115771;28;20023;-71
2023/01/07 02:50:34;;;;;;;66.22;7.47;;;;;;;7.97;100.00;100890.56;5099034;28;20451;-70
2023/01/07 02:52:59;;;;;;;73.10;7.30;;;;;;;7.83;100.00;100859.22;5106445;28;20035;-70
2023/01/07 02:55:44;;;;;;;60.33;7.05;;;;;;;8.05;100.00;100888.88;5087558;28;20657;-70
2023/01/07 02:58:26;;;;;;;55.83;6.25;;;;;;;7.99;100.00;100887.72;5129562;27;20490;-70
2023/01/07 03:01:10;;;;;;;58.40;6.18;;;;;;;8.04;100.00;100888.00;5106034;28;20035;-70
2023/01/07 03:03:59;;;;;;;62.75;6.72;;;;;;;8.07;100.00;100892.19;5104594;28;20028;-70
2023/01/07 03:06:46;;;;;;;55.45;6.57;;;;;;;8.06;100.00;100891.34;5086717;28;20038;-70
2023/01/07 03:09:23;;;;;;;69.00;7.10;;;;;;;7.94;100.00;100871.34;5107526;28;20031;-70
2023/01/07 03:12:11;;;;;;;74.78;7.75;;;;;;;8.11;100.00;100898.84;5111963;28;20027;-71
2023/01/07 03:15:03;;;;;;;85.07;7.97;;;;;;;7.92;100.00;100863.50;5086510;28;20080;-71
2023/01/07 03:17:43;;;;;;;64.82;7.22;;;;;;;7.93;100.00;100897.31;5080596;28;20499;-74
2023/01/07 03:20:12;;;;;;;76.10;6.43;;;;;;;7.97;100.00;100887.91;5089404;28;20032;-71
2023/01/07 03:22:40;;;;;;;66.72;7.55;;;;;;;7.99;100.00;100885.88;5061674;28;20081;-72
2023/01/07 03:25:07;;;;;;;57.28;7.10;;;;;;;7.97;100.00;100890.56;5082925;28;20044;-71
2023/01/07 03:27:35;;;;;;;83.57;7.40;;;;;;;7.97;100.00;100890.56;5068428;28;20032;-70
2023/01/07 03:30:05;;;;;;;72.15;7.45;;;;;;;7.94;100.00;100892.78;5042490;28;20115;-70
2023/01/07 03:32:41;;;;;;;78.80;8.10;;;;;;;7.89;100.00;100879.13;5087511;28;20051;-70
2023/01/07 03:35:07;;;;;;;75.13;7.60;;;;;;;7.89;100.00;100885.31;5081224;28;20111;-70
2023/01/07 03:37:33;;;;;;;79.90;6.93;;;;;;;7.79;100.00;100882.03;5077745;28;20048;-70
2023/01/07 03:39:59;;;;;;;71.65;7.32;;;;;;;7.71;100.00;100861.47;5071730;28;20115;-70
2023/01/07 03:42:40;;;;;;;77.63;7.72;;;;;;;7.59;100.00;100829.97;5067566;28;20060;-70
2023/01/07 03:45:11;;;;;;;70.45;7.72;;;;;;;7.80;100.00;100867.63;5088489;28;20115;-70
2023/01/07 03:47:38;;;;;;;69.10;7.25;;;;;;;7.79;100.00;100863.28;5072855;28;20433;-70
2023/01/07 03:50:04;;;;;;;90.15;7.72;;;;;;;7.77;100.00;100871.47;5095478;28;20043;-71
2023/01/07 03:52:29;;;;;;;81.80;6.97;;;;;;;7.73;100.00;100872.84;5107741;28;20043;-70
2023/01/07 03:54:55;;;;;;;78.93;6.88;;;;;;;7.76;100.00;100875.19;5083943;28;20072;-70
2023/01/07 03:57:20;;;;;;;76.70;7.68;;;;;;;7.73;100.00;100880.88;5068452;28;20032;-70
2023/01/07 03:59:46;;;;;;;72.10;6.95;;;;;;;7.59;100.00;100862.09;5108242;28;20034;-70
2023/01/07 04:02:12;;;;;;;75.13;7.03;;;;;;;7.75;100.00;100888.78;5096043;28;20028;-70
2023/01/07 04:04:37;;;;;;;67.30;7.05;;;;;;;7.75;100.00;100886.09;5108836;28;20058;-70
2023/01/07 04:07:03;;;;;;;73.18;7.30;;;;;;;7.62;100.00;100870.59;5102824;28;20428;-70
2023/01/07 04:09:28;;;;;;;88.22;7.55;;;;;;;7.60;100.00;100874.47;5100613;28;20548;-70
2023/01/07 04:11:53;;;;;;;71.22;7.50;;;;;;;7.67;100.00;100892.31;5108661;28;20517;-70
2023/01/07 04:14:19;;;;;;;83.70;7.32;;;;;;;7.77;100.00;100905.47;5095663;28;20431;-70
2023/01/07 04:16:44;;;;;;;96.50;8.35;;;;;;;7.76;100.00;100906.50;5105015;28;20060;-70
2023/01/07 04:19:10;;;;;;;76.57;7.10;;;;;;;7.76;100.00;100914.53;5101840;28;20052;-70
2023/01/07 04:21:35;;;;;;;73.95;6.65;;;;;;;7.72;100.00;100915.91;5098801;28;20058;-71
2023/01/07 04:24:00;;;;;;;78.95;7.40;;;;;;;7.73;100.00;100910.34;5107998;28;20027;-70
2023/01/07 04:26:26;;;;;;;89.75;7.43;;;;;;;7.66;100.00;100901.38;5095340;28;20055;-70
2023/01/07 04:28:51;;;;;;;76.85;7.45;;;;;;;7.74;100.00;100908.50;5103453;28;20066;-70
2023/01/07 04:31:17;;;;;;;87.07;9.13;;;;;;;7.52;100.00;100875.38;5102561;28;20035;-70
2023/01/07 04:33:43;;;;;;;90.88;8.93;;;;;;;7.73;100.00;100912.22;5079782;28;20036;-70
2023/01/07 04:36:09;;;;;;;74.78;8.13;;;;;;;7.69;100.00;100903.69;5107834;28;20136;-70
2023/01/07 04:38:34;;;;;;;72.65;9.20;;;;;;;7.67;100.00;100913.75;5096912;28;20074;-69
2023/01/07 04:40:59;;;;;;;81.35;8.73;;;;;;;7.64;100.00;100914.09;5102677;28;20036;-70
2023/01/07 04:43:27;;;;;;;71.22;7.28;;;;;;;7.65;100.00;100920.28;5103649;28;20118;-70
2023/01/07 04:45:55;;;;;;;73.05;8.25;;;;;;;7.46;100.00;100901.00;5078244;28;20043;-70
2023/01/07 04:48:21;;;;;;;65.80;7.28;;;;;;;7.43;100.00;100904.03;5108866;28;20035;-71
2023/01/07 04:50:47;;;;;;;71.32;7.50;;;;;;;7.60;100.00;100938.75;5103632;28;20490;-70
2023/01/07 04:53:13;;;;;;;75.22;8.13;;;;;;;7.59;100.00;100947.78;5107591;28;20059;-70
2023/01/07 04:55:41;;;;;;;70.93;7.60;;;;;;;7.59;100.00;100948.63;5112309;28;20066;-70
2023/01/07 04:58:06;;;;;;;77.85;7.85;;;;;;;7.61;100.00;100941.22;5098968;28;20032;-70
2023/01/07 05:00:34;;;;;;;62.20;6.60;;;;;;;7.63;100.00;100941.06;5112257;28;20040;-70
2023/01/07 05:03:02;;;;;;;61.08;7.13;;;;;;;7.67;100.00;100945.06;5104125;28;20510;-70
2023/01/07 05:05:27;;;;;;;67.43;6.85;;;;;;;7.67;100.00;100945.06;5103654;28;20126;-69
2023/01/07 05:07:52;;;;;;;63.17;7.32;;;;;;;7.68;100.00;100944.03;5111638;28;20119;-69
2023/01/07 05:10:20;;;;;;;61.72;7.18;;;;;;;7.70;100.00;100939.34;5086696;28;20030;-69
2023/01/07 05:12:45;;;;;;;60.10;8.00;;;;;;;7.44;100.00;100907.53;5114090;28;20060;-70
2023/01/07 05:15:11;;;;;;;70.82;6.50;;;;;;;7.69;100.00;100938.50;5111711;28;20111;-70
2023/01/07 05:17:36;;;;;;;64.25;6.80;;;;;;;7.70;100.00;100942.03;5105042;28;20044;-69
2023/01/07 05:20:02;;;;;;;66.10;7.20;;;;;;;7.69;100.00;100932.31;5113257;28;20047;-69
2023/01/07 05:22:28;;;;;;;62.65;7.88;;;;;;;7.44;100.00;100892.28;5099780;28;20027;-70
2023/01/07 05:24:53;;;;;;;81.28;7.55;;;;;;;7.59;100.00;100929.03;5106997;28;20085;-70
2023/01/07 05:27:18;;;;;;;64.30;7.00;;;;;;;7.59;100.00;100923.69;5105144;28;20504;-70
2023/01/07 05:29:44;;;;;;;74.65;7.72;;;;;;;7.61;100.00;100933.19;5065807;28;20035;-69
2023/01/07 05:32:09;;;;;;;71.97;7.10;;;;;;;7.61;100.00;100929.69;5113147;28;20099;-69
2023/01/07 05:34:34;;;;;;;83.50;7.78;;;;;;;7.58;100.00;100924.69;5109991;28;20032;-70
2023/01/07 05:37:00;;;;;;;69.93;7.57;;;;;;;7.45;100.00;100912.72;5095510;28;20035;-69
2023/01/07 05:39:25;;;;;;;73.35;8.13;;;;;;;7.50;100.00;100918.38;5107985;28;20112;-69
2023/01/07 05:41:51;;;;;;;72.18;7.82;;;;;;;7.50;100.00;100929.06;5100414;28;20028;-69
2023/01/07 05:44:16;;;;;;;67.45;7.57;;;;;;;7.45;100.00;100923.44;5111063;28;20031;-69
2023/01/07 05:46:42;;;;;;;61.92;7.55;;;;;;;7.43;100.00;100921.94;5102429;28;20094;-69
2023/01/07 05:49:08;;;;;;;70.72;8.77;;;;;;;7.30;100.00;100901.09;5088422;28;20450;-69
2023/01/07 05:51:34;;;;;;;76.88;7.75;;;;;;;7.47;100.00;100917.88;5108567;28;20035;-70
2023/01/07 05:54:00;;;;;;;63.28;8.10;;;;;;;7.44;100.00;100915.56;5099225;28;20032;-70
2023/01/07 05:56:26;;;;;;;82.50;9.00;;;;;;;7.45;100.00;100914.53;5111205;28;20119;-70
2023/01/07 05:58:53;;;;;;;76.65;7.57;;;;;;;7.46;100.00;100914.38;5101948;28;20034;-70
2023/01/07 06:01:19;;;;;;;83.35;8.07;;;;;;;7.45;100.00;100926.09;5086955;28;20035;-71
2023/01/07 06:03:44;;;;;;;73.30;8.35;;;;;;;7.47;100.00;100928.59;5111312;28;20095;-70
2023/01/07 06:06:09;;;;;;;70.13;8.52;;;;;;;7.44;100.00;100926.25;5098493;28;20028;-69
2023/01/07 06:08:36;;;;;;;72.82;7.97;;;;;;;7.48;100.00;100932.94;5093253;28;20028;-71
2023/01/07 06:11:02;;;;;;;68.03;7.30;;;;;;;7.53;100.00;100938.59;5086195;28;20399;-70
2023/01/07 06:13:28;;;;;;;68.43;7.70;;;;;;;7.56;100.00;100932.06;5104112;28;20150;-69
2023/01/07 06:15:59;;;;;;;69.57;8.27;;;;;;;7.56;100.00;100930.22;5111380;28;20493;-70
2023/01/07 06:18:25;;;;;;;67.40;8.93;;;;;;;7.46;100.00;100909.03;5082874;28;20048;-69
2023/01/07 06:20:50;;;;;;;69.72;8.52;;;;;;;7.59;100.00;100929.88;5093281;28;20408;-71
2023/01/07 06:23:16;;;;;;;69.05;9.48;;;;;;;7.59;100.00;100929.03;5108037;28;20027;-70
2023/01/07 06:25:41;;;;;;;79.72;8.15;;;;;;;7.58;100.00;100924.69;5104536;28;20032;-69
2023/01/07 06:28:06;;;;;;;65.90;7.47;;;;;;;7.61;100.00;100929.69;5114434;28;20067;-71
2023/01/07 06:30:32;;;;;;;63.28;7.57;;;;;;;7.60;100.00;100934.22;5101229;28;20028;-68
2023/01/07 06:32:57;;;;;;;77.82;8.30;;;;;;;7.60;100.00;100936.88;5091731;28;20032;-69
2023/01/07 06:35:23;;;;;;;56.33;7.03;;;;;;;7.60;100.00;100934.22;5110714;28;20031;-69
2023/01/07 06:37:48;;;;;;;76.30;7.97;;;;;;;7.53;100.00;100926.03;5102264;28;20036;-69
2023/01/07 06:40:14;;;;;;;70.15;8.18;;;;;;;7.61;100.00;100937.72;5113513;28;20047;-68
2023/01/07 06:42:39;;;;;;;73.22;7.32;;;;;;;7.53;100.00;100918.00;5101252;28;20016;-70
2023/01/07 06:45:07;;;;;;;71.80;7.90;;;;;;;7.64;100.00;100927.47;5090332;28;20046;-69
2023/01/07 06:47:33;;;;;;;83.18;7.80;;;;;;;7.64;100.00;100921.28;5110527;28;20035;-70
2023/01/07 06:49:58;;;;;;;83.40;8.60;;;;;;;7.70;100.00;100932.13;5083427;28;20401;-70
2023/01/07 06:52:24;;;;;;;73.20;8.02;;;;;;;7.74;100.00;100935.28;5096328;28;20028;-69
2023/01/07 06:54:49;;;;;;;71.82;8.07;;;;;;;7.74;100.00;100929.94;5105057;28;20030;-69
2023/01/07 06:57:15;;;;;;;75.85;7.55;;;;;;;7.75;100.00;100928.94;5090299;28;20379;-69
2023/01/07 06:59:40;;;;;;;69.10;7.53;;;;;;;7.76;100.00;100938.63;5111707;28;20032;-71
2023/01/07 07:02:06;;;;;;;82.72;9.00;;;;;;;7.78;100.00;100939.28;5102362;28;20044;-69
2023/01/07 07:04:31;;;;;;;70.55;8.20;;;;;;;7.56;100.00;100899.94;5096777;28;20032;-70
2023/01/07 07:06:57;;;;;;;67.18;8.00;;;;;;;7.62;100.00;100902.75;5105811;28;20034;-69
2023/01/07 07:09:22;;;;;;;65.78;8.43;;;;;;;7.81;100.00;100930.88;5107504;28;20091;-70
2023/01/07 07:11:48;;;;;;;65.20;8.45;;;;;;;7.67;100.00;100902.19;5111252;28;20058;-70
2023/01/07 07:14:13;;;;;;;75.22;8.48;;;;;;;7.76;100.00;100919.88;5099632;28;20047;-69
2023/01/07 07:16:38;;;;;;;76.63;8.40;;;;;;;7.88;100.00;100939.91;5112665;28;20024;-70
2023/01/07 07:19:04;;;;;;;74.50;8.73;;;;;;;7.80;100.00;100923.03;5106136;28;20071;-70
2023/01/07 07:21:29;;;;;;;74.25;8.93;;;;;;;7.91;100.00;100936.88;5105107;28;20063;-70
2023/01/07 07:23:55;;;;;;;70.18;8.02;;;;;;;7.91;100.00;100931.50;5113896;28;20035;-68
2023/01/07 07:26:20;;;;;;;67.57;8.18;;;;;;;7.90;100.00;100923.63;5101855;28;20096;-73
2023/01/07 07:28:45;;;;;;;58.65;7.85;;;;;;;7.68;100.00;100891.31;5111693;28;20397;-69
2023/01/07 07:31:11;;;;;;;56.28;7.53;;;;;;;7.94;100.00;100925.78;5089834;28;20031;-69
2023/01/07 07:33:36;;;;;;;69.28;9.00;;;;;;;7.95;100.00;100940.03;5104476;28;20036;-69
2023/01/07 07:36:02;;;;;;;65.45;7.80;;;;;;;7.87;100.00;100927.50;5114764;28;20040;-69
2023/01/07 07:38:28;;;;;;;70.75;9.30;;;;;;;7.98;100.00;100943.19;5102377;28;20121;-69
2023/01/07 07:40:53;;;;;;;65.53;7.95;;;;;;;8.01;100.00;100933.94;5110050;28;20488;-69
2023/01/07 07:43:19;;;;;;;66.88;8.20;;;;;;;8.00;100.00;100935.78;5108732;28;20538;-69
2023/01/07 07:45:44;;;;;;;62.30;7.53;;;;;;;7.82;100.00;100911.16;5104445;28;20079;-71
2023/01/07 07:48:12;;;;;;;78.35;8.02;;;;;;;8.02;100.00;100921.38;5096715;28;20036;-71
2023/01/07 07:50:38;;;;;;;71.60;7.85;;;;;;;8.02;100.00;100926.75;5101590;28;20061;-73
2023/01/07 07:53:03;;;;;;;70.72;8.35;;;;;;;7.96;100.00;100942.50;5108401;28;20036;-70
2023/01/07 07:55:29;;;;;;;65.15;9.38;;;;;;;7.91;100.00;100922.63;5109839;28;20035;-70
2023/01/07 07:58:05;;;;;;;79.95;8.55;;;;;;;8.08;100.00;100944.75;5102141;28;20051;-73
2023/01/07 08:00:31;;;;;;;83.47;9.40;;;;;;;7.97;100.00;100920.06;5085845;28;20022;-69
2023/01/07 08:02:57;;;;;;;85.60;8.93;;;;;;;8.10;100.00;100935.53;5110438;28;20497;-69
2023/01/07 08:05:23;;;;;;;71.10;8.27;;;;;;;8.08;100.00;100932.22;5108702;28;20041;-75
2023/01/07 08:07:48;;;;;;;84.63;9.82;;;;;;;7.88;100.00;100901.53;5101846;28;20486;-69
2023/01/07 08:10:14;;;;;;;79.05;9.20;;;;;;;8.12;100.00;100946.91;5113261;28;20039;-70
2023/01/07 08:12:40;;;;;;;101.00;9.57;;;;;;;8.16;100.00;100955.44;5102719;28;20091;-69
2023/01/07 08:15:06;;;;;;;97.57;10.20;;;;;;;7.99;100.00;100926.09;5107050;28;20032;-71
2023/01/07 08:17:32;;;;;;;88.50;9.32;;;;;;;8.13;100.00;100937.84;5109608;28;20108;-71
2023/01/07 08:19:58;;;;;;;98.50;9.90;;;;;;;8.18;100.00;100938.16;5100679;28;20032;-74
2023/01/07 08:22:23;;;;;;;93.45;11.15;;;;;;;8.16;100.00;100942.03;5112723;28;20024;-71
2023/01/07 08:24:48;;;;;;;92.47;10.15;;;;;;;8.15;100.00;100949.25;5089531;28;20443;-70
2023/01/07 08:27:14;;;;;;;92.30;10.70;;;;;;;8.09;100.00;100944.59;5113559;28;20159;-71
2023/01/07 08:29:40;;;;;;;80.95;10.00;;;;;;;8.11;100.00;100937.22;5116287;28;20050;-70
2023/01/07 08:32:05;;;;;;;81.18;10.43;;;;;;;8.16;100.00;100947.41;5104092;28;20020;-69
2023/01/07 08:34:30;;;;;;;89.88;9.98;;;;;;;8.19;100.00;100933.63;5121861;28;20048;-70
2023/01/07 08:36:59;;;;;;;72.90;10.60;;;;;;;8.25;100.00;100938.28;5112927;28;20027;-69
2023/01/07 08:39:24;;;;;;;87.25;10.07;;;;;;;8.26;100.00;100933.75;5112343;28;20078;-69
2023/01/07 08:41:49;;;;;;;110.70;13.23;;;;;;;8.30;100.00;100940.41;5120477;28;20032;-69
2023/01/07 08:44:15;;;;;;;114.57;13.10;;;;;;;8.27;100.00;100938.91;5107916;28;20064;-70
2023/01/07 08:46:41;;;;;;;132.50;13.85;;;;;;;8.30;100.00;100935.03;5118210;28;20089;-69
2023/01/07 08:49:08;;;;;;;118.35;12.80;;;;;;;8.31;100.00;100940.25;5112564;28;20028;-71
2023/01/07 08:51:34;;;;;;;105.22;13.30;;;;;;;8.19;100.00;100918.38;5112341;28;20032;-69
2023/01/07 08:54:03;;;;;;;134.07;14.88;;;;;;;8.31;100.00;100937.56;5118320;28;20036;-69
2023/01/07 08:56:28;;;;;;;132.18;14.75;;;;;;;8.36;100.00;100939.69;5089780;28;20034;-71
2023/01/07 08:58:53;;;;;;;120.07;10.93;;;;;;;8.25;100.00;100932.91;5116953;28;20546;-69
2023/01/07 09:01:19;;;;;;;99.68;11.30;;;;;;;8.18;100.00;100916.72;5113270;28;20118;-70
2023/01/07 09:03:45;;;;;;;80.40;10.45;;;;;;;8.38;100.00;100946.56;5109427;28;20091;-69
2023/01/07 09:06:10;;;;;;;104.75;12.50;;;;;;;8.40;100.00;100944.53;5119338;28;20054;-70
2023/01/07 09:08:36;;;;;;;174.10;17.08;;;;;;;8.41;100.00;100940.00;5106561;28;20027;-70
2023/01/07 09:11:02;;;;;;;131.75;14.18;;;;;;;8.40;100.00;100939.16;5115217;28;20547;-69
2023/01/07 09:13:27;;;;;;;88.78;12.43;;;;;;;8.41;100.00;100938.16;5114327;28;20180;-70
2023/01/07 09:15:52;;;;;;;40.47;9.32;;;;;;;8.40;100.00;100931.13;5107810;28;20028;-68
2023/01/07 09:18:21;;;;;;;42.30;8.88;;;;;;;8.34;100.00;100910.34;5113436;28;20076;-78
2023/01/07 09:20:46;;;;;;;41.20;9.05;;;;;;;8.53;100.00;100924.31;5099529;28;20109;-69
2023/01/07 09:23:12;;;;;;;29.52;6.50;;;;;;;8.50;100.00;100920.13;5109713;28;20030;-82
2023/01/07 09:25:37;;;;;;;32.33;7.55;;;;;;;8.60;100.00;100927.91;5108474;28;20035;-70
2023/01/07 09:28:03;;;;;;;33.53;7.60;;;;;;;8.53;100.00;100909.03;5117949;28;20069;-70
2023/01/07 09:30:28;;;;;;;32.90;7.18;;;;;;;8.66;100.00;100916.47;5105440;28;20072;-71
2023/01/07 09:32:56;;;;;;;32.85;8.07;;;;;;;8.67;100.00;100908.22;5098988;28;20074;-68
2023/01/07 09:35:22;;;;;;;34.92;8.07;;;;;;;8.54;100.00;100886.56;5112675;28;20397;-70
2023/01/07 09:37:47;;;;;;;50.22;10.18;;;;;;;8.62;100.00;100901.75;5107169;28;20042;-70
2023/01/07 09:40:24;;;;;;;46.03;10.60;;;;;;;8.70;100.00;100901.66;5116586;28;20114;-70
2023/01/07 09:43:08;;;;;;;72.35;11.60;;;;;;;8.63;100.00;100890.00;5105429;28;20020;-69
2023/01/07 09:45:39;;;;;;;67.13;11.95;;;;;;;8.46;100.00;100859.84;5105849;28;20036;-69
2023/01/07 09:48:15;;;;;;;71.97;13.05;;;;;;;8.75;100.00;100895.75;5115751;28;20037;-69
2023/01/07 09:50:53;;;;;;;53.72;11.93;;;;;;;8.70;100.00;100902.47;5107256;28;20030;-70
2023/01/07 09:53:24;;;;;;;72.20;13.80;;;;;;;8.69;100.00;100894.63;5110033;28;20028;-69
2023/01/07 09:55:52;;;;;;;75.63;12.55;;;;;;;8.72;100.00;100896.13;5116067;28;20028;-69
2023/01/07 09:58:19;;;;;;;72.65;13.57;;;;;;;8.68;100.00;100892.97;5104274;28;20106;-69
2023/01/07 10:00:56;;;;;;;92.88;15.85;;;;;;;8.74;100.00;100897.59;5115356;28;20028;-77
2023/01/07 10:03:41;;;;;;;67.18;14.55;;;;;;;8.72;100.00;100896.94;5112467;28;20030;-70
2023/01/07 10:06:35;;;;;;;77.40;13.43;;;;;;;8.75;100.00;100895.75;5104951;28;20028;-69
2023/01/07 10:09:23;;;;;;;58.85;13.55;;;;;;;8.72;100.00;100899.63;5109593;28;20048;-69
2023/01/07 10:12:10;;;;;;;70.32;13.75;;;;;;;8.76;100.00;100897.41;5106672;28;20444;-69
2023/01/07 10:14:42;;;;;;;88.70;14.43;;;;;;;8.76;100.00;100900.91;5088360;28;20039;-70
2023/01/07 10:17:22;;;;;;;75.18;13.18;;;;;;;8.75;100.00;100901.13;5110913;28;20032;-69
2023/01/07 10:20:02;;;;;;;62.65;12.30;;;;;;;8.60;100.00;100877.78;5099072;28;20455;-70
2023/01/07 10:22:36;;;;;;;49.63;12.23;;;;;;;8.63;100.00;100908.78;5116269;28;20075;-69
2023/01/07 10:25:13;;;;;;;63.97;12.77;;;;;;;8.65;100.00;100907.59;5108331;28;20050;-69
2023/01/07 10:27:45;;;;;;;66.57;11.57;;;;;;;8.62;100.00;100904.44;5107404;28;20063;-69
2023/01/07 10:30:17;;;;;;;64.03;12.60;;;;;;;8.67;100.00;100900.16;5117387;28;20031;-69
2023/01/07 10:32:45;;;;;;;59.58;11.77;;;;;;;8.61;100.00;100902.75;5104228;28;20023;-69
2023/01/07 10:35:19;;;;;;;53.55;11.95;;;;;;;8.59;100.00;100902.13;5110428;28;20120;-70
2023/01/07 10:37:45;;;;;;;51.85;12.15;;;;;;;8.68;100.00;100893.81;5113435;28;20035;-69
2023/01/07 10:40:32;;;;;;;50.20;11.98;;;;;;;8.67;100.00;100893.97;5101441;28;20102;-69
2023/01/07 10:43:18;;;;;;;62.20;12.95;;;;;;;8.66;100.00;100897.69;5113052;28;20020;-74
2023/01/07 10:46:34;;;;;;;64.68;12.35;;;;;;;8.68;100.00;100896.50;5112851;28;20028;-70
2023/01/07 10:49:14;;;;;;;40.55;10.93;;;;;;;8.65;100.00;100891.50;5083090;28;20085;-69
2023/01/07 10:51:51;;;;;;;54.58;12.02;;;;;;;8.62;100.00;100886.50;5108766;28;20364;-69
2023/01/07 10:54:22;;;;;;;52.83;13.15;;;;;;;8.69;100.00;100875.84;5115473;28;20031;-71
2023/01/07 10:56:56;;;;;;;59.75;13.27;;;;;;;8.65;100.00;100875.41;5103809;28;20398;-70
2023/01/07 10:59:24;;;;;;;56.78;12.82;;;;;;;8.71;100.00;100865.78;5107287;28;20031;-69
2023/01/07 11:01:55;;;;;;;55.47;13.68;;;;;;;8.66;100.00;100855.59;5093744;28;20031;-69
2023/01/07 11:04:21;;;;;;;44.17;11.77;;;;;;;8.63;100.00;100842.53;5113272;28;20036;-70
2023/01/07 11:06:52;;;;;;;50.50;12.80;;;;;;;8.78;100.00;100845.25;5098838;28;20054;-72
2023/01/07 11:09:24;;;;;;;64.47;13.90;;;;;;;8.78;100.00;100841.72;5108164;28;20034;-69
2023/01/07 11:11:51;;;;;;;53.33;13.57;;;;;;;8.58;100.00;100787.81;5103346;28;20030;-69
2023/01/07 11:14:43;;;;;;;43.25;14.02;;;;;;;8.76;100.00;100827.66;5115710;28;20054;-72
2023/01/07 11:17:18;;;;;;;48.65;14.00;;;;;;;8.85;100.00;100824.69;5104058;28;20042;-71
2023/01/07 11:19:47;;;;;;;45.45;14.20;;;;;;;8.91;100.00;100825.78;5104292;28;20032;-69
2023/01/07 11:22:25;;;;;;;56.13;14.05;;;;;;;8.97;100.00;100816.13;5116017;28;20051;-69
2023/01/07 11:24:54;;;;;;;42.72;14.77;;;;;;;8.93;100.00;100815.69;5105245;28;20028;-69